X  Zatvori METAR Podaci o vazduhoplovstvu     LYNI Nis Airport
Temperatura
25°C Temperatura
13°C Tačka Rose
47% Vlaga



Vetar
4 M/S
9 MPH
14 KM/H
8 KTS



70°
ISI
Trenutna situacija

Vedro Vedro
Vazdušni pritisak 1008.92 (hPa) - 29.79 (inHg)
Vidljivost 6.2 (Milja) - 10 (km)
Aerodrom
Aerodromski kod. LYNI

Lokacija: Nis Airport
Udaljenost: 63 (km)

Metar:
LYNI 241800Z 07008KT CAVOK 25/13 Q1009 NOSIG

Vreme: 24-05-2022 20:00 CEST